createdAt,value
2023-12-13T00:00:14.618Z,18.55
2023-12-13T00:01:14.693Z,18.55
2023-12-13T00:02:14.850Z,18.55
2023-12-13T00:03:14.783Z,18.53
2023-12-13T00:04:14.821Z,18.56
2023-12-13T00:05:14.832Z,18.53
2023-12-13T00:06:14.882Z,18.52
2023-12-13T00:07:14.958Z,18.50
2023-12-13T00:08:14.958Z,18.52
2023-12-13T00:09:15.000Z,18.53
2023-12-13T00:10:15.079Z,18.55
2023-12-13T00:11:15.112Z,18.50
2023-12-13T00:12:15.168Z,18.53
2023-12-13T00:13:15.234Z,18.53
2023-12-13T00:14:15.224Z,18.49
2023-12-13T00:15:15.277Z,18.53
2023-12-13T00:16:15.357Z,18.52
2023-12-13T00:17:15.366Z,18.46
2023-12-13T00:18:15.531Z,18.52
2023-12-13T00:19:15.626Z,18.52
2023-12-13T00:20:15.552Z,18.50
2023-12-13T00:21:15.619Z,18.48
2023-12-13T00:22:15.703Z,18.49
2023-12-13T00:23:15.733Z,18.52
2023-12-13T00:24:15.787Z,18.50
2023-12-13T00:25:15.929Z,18.50
2023-12-13T00:26:15.903Z,18.49
2023-12-13T00:27:15.969Z,18.49
2023-12-13T00:28:16.597Z,18.50
2023-12-13T00:29:16.163Z,18.50
2023-12-13T00:30:16.214Z,18.49
2023-12-13T00:31:16.234Z,18.48
2023-12-13T00:32:16.270Z,18.49
2023-12-13T00:33:16.495Z,18.49
2023-12-13T00:34:16.429Z,18.50
2023-12-13T00:35:16.473Z,18.48
2023-12-13T00:36:16.531Z,18.49
2023-12-13T00:37:16.754Z,18.49
2023-12-13T00:38:16.652Z,18.50
2023-12-13T00:39:16.708Z,18.46
2023-12-13T00:40:16.954Z,18.52
2023-12-13T00:41:16.833Z,18.49
2023-12-13T00:42:16.900Z,18.49
2023-12-13T00:43:16.987Z,18.50
2023-12-13T00:44:17.022Z,18.48
2023-12-13T00:45:17.080Z,18.49
2023-12-13T00:46:17.206Z,18.46
2023-12-13T00:47:17.282Z,18.48
2023-12-13T00:48:17.323Z,18.50
2023-12-13T00:49:17.366Z,18.49
2023-12-13T00:50:17.388Z,18.46
2023-12-13T00:51:17.460Z,18.49
2023-12-13T00:52:17.578Z,18.48
2023-12-13T00:53:17.575Z,18.48
2023-12-13T00:54:17.631Z,18.52
2023-12-13T00:55:17.774Z,18.49
2023-12-13T00:56:17.759Z,18.50
2023-12-13T00:57:17.815Z,18.48
2023-12-13T00:58:17.922Z,18.48
2023-12-13T00:59:17.924Z,18.50
2023-12-13T01:00:17.994Z,18.48
2023-12-13T01:01:18.151Z,18.49
2023-12-13T01:02:18.640Z,18.50
2023-12-13T01:03:18.194Z,18.48
2023-12-13T01:04:18.402Z,18.49
2023-12-13T01:05:18.390Z,18.46
2023-12-13T01:06:18.387Z,18.50
2023-12-13T01:07:18.471Z,18.50
2023-12-13T01:08:18.500Z,18.49
2023-12-13T01:09:18.595Z,18.50
2023-12-13T01:10:18.645Z,18.46
2023-12-13T01:11:18.698Z,18.46
2023-12-13T01:12:18.746Z,18.48
2023-12-13T01:13:18.853Z,18.48
2023-12-13T01:14:18.884Z,18.48
2023-12-13T01:15:18.930Z,18.46
2023-12-13T01:16:19.026Z,18.50
2023-12-13T01:17:19.057Z,18.46
2023-12-13T01:18:19.189Z,18.48
2023-12-13T01:19:19.263Z,18.45
2023-12-13T01:20:19.422Z,18.48
2023-12-13T01:21:19.315Z,18.48
2023-12-13T01:22:19.393Z,18.45
2023-12-13T01:23:19.439Z,18.46
2023-12-13T01:24:19.522Z,18.46
2023-12-13T01:25:19.594Z,18.48
2023-12-13T01:26:19.652Z,18.49
2023-12-13T01:27:19.700Z,18.48
2023-12-13T01:28:19.958Z,18.46
2023-12-13T01:29:19.894Z,18.49
2023-12-13T01:30:19.919Z,18.48
2023-12-13T01:31:20.037Z,18.46
2023-12-13T01:32:20.040Z,18.48
2023-12-13T01:33:20.145Z,18.46
2023-12-13T01:34:20.175Z,18.49
2023-12-13T01:35:20.216Z,18.48
2023-12-13T01:36:20.269Z,18.46
2023-12-13T01:37:20.348Z,18.49
2023-12-13T01:38:20.474Z,18.50
2023-12-13T01:39:20.519Z,18.48
2023-12-13T01:40:20.550Z,18.46
2023-12-13T01:41:20.619Z,18.43
2023-12-13T01:42:20.652Z,18.48
2023-12-13T01:43:20.728Z,18.48
2023-12-13T01:44:20.772Z,18.48
2023-12-13T01:45:20.837Z,18.48
2023-12-13T01:46:20.905Z,18.48
2023-12-13T01:47:20.945Z,18.45
2023-12-13T01:48:21.147Z,18.49
2023-12-13T01:49:21.202Z,18.48
2023-12-13T01:50:21.147Z,18.49
2023-12-13T01:51:21.199Z,18.46
2023-12-13T01:52:21.287Z,18.49
2023-12-13T01:53:21.395Z,18.49
2023-12-13T01:54:21.392Z,18.48
2023-12-13T01:55:21.479Z,18.49
2023-12-13T01:56:21.517Z,18.45
2023-12-13T01:57:21.635Z,18.48
2023-12-13T01:58:21.677Z,18.46
2023-12-13T01:59:21.709Z,18.45
2023-12-13T02:00:21.775Z,18.43
2023-12-13T02:01:21.918Z,18.46
2023-12-13T02:02:21.937Z,18.48
2023-12-13T02:03:22.015Z,18.46
2023-12-13T02:04:22.064Z,18.46
2023-12-13T02:05:22.153Z,18.48
2023-12-13T02:06:22.168Z,18.45
2023-12-13T02:07:22.246Z,18.45
2023-12-13T02:08:22.300Z,18.46
2023-12-13T02:09:22.364Z,18.48
2023-12-13T02:10:22.469Z,18.48
2023-12-13T02:11:24.534Z,18.48
2023-12-13T02:12:22.543Z,18.48
2023-12-13T02:13:22.635Z,18.48
2023-12-13T02:14:22.625Z,18.48
2023-12-13T02:15:22.686Z,18.48
2023-12-13T02:16:22.777Z,18.48
2023-12-13T02:17:22.775Z,18.48
2023-12-13T02:18:22.892Z,18.46
2023-12-13T02:19:22.980Z,18.48
2023-12-13T02:20:22.914Z,18.46
2023-12-13T02:21:22.968Z,18.48
2023-12-13T02:22:23.034Z,18.48
2023-12-13T02:23:23.054Z,18.49
2023-12-13T02:24:23.101Z,18.48
2023-12-13T02:25:23.209Z,18.52
2023-12-13T02:26:23.190Z,18.46
2023-12-13T02:27:23.239Z,18.52
2023-12-13T02:28:23.318Z,18.49
2023-12-13T02:29:23.333Z,18.50
2023-12-13T02:30:25.055Z,18.52
2023-12-13T02:31:23.490Z,18.48
2023-12-13T02:32:23.528Z,18.48
2023-12-13T02:33:23.611Z,18.46
2023-12-13T02:34:23.705Z,18.49
2023-12-13T02:35:23.630Z,18.50
2023-12-13T02:36:23.664Z,18.48
2023-12-13T02:37:23.732Z,18.48
2023-12-13T02:38:23.746Z,18.46
2023-12-13T02:39:23.884Z,18.48
2023-12-13T02:40:23.875Z,18.48
2023-12-13T02:41:23.883Z,18.46
2023-12-13T02:42:24.003Z,18.48
2023-12-13T02:43:24.037Z,18.46
2023-12-13T02:44:24.029Z,18.49
2023-12-13T02:45:24.081Z,18.43
2023-12-13T02:46:24.178Z,18.48
2023-12-13T02:47:24.185Z,18.46
2023-12-13T02:48:24.380Z,18.50
2023-12-13T02:49:24.340Z,18.49
2023-12-13T02:50:24.314Z,18.45
2023-12-13T02:51:24.365Z,18.49
2023-12-13T02:52:24.470Z,18.48
2023-12-13T02:53:24.461Z,18.46
2023-12-13T02:54:24.497Z,18.49
2023-12-13T02:55:27.241Z,18.50
2023-12-13T02:56:24.868Z,18.50
2023-12-13T02:57:24.883Z,18.50
2023-12-13T02:58:25.013Z,18.50
2023-12-13T02:59:24.996Z,18.50
2023-12-13T03:00:25.070Z,18.53
2023-12-13T03:01:25.242Z,18.52
2023-12-13T03:02:25.174Z,18.52
2023-12-13T03:03:25.281Z,18.52
2023-12-13T03:04:25.323Z,18.52
2023-12-13T03:05:25.370Z,18.53
2023-12-13T03:06:25.391Z,18.52
2023-12-13T03:07:25.527Z,18.52
2023-12-13T03:08:25.495Z,18.53
2023-12-13T03:09:25.544Z,18.53
2023-12-13T03:10:25.655Z,18.55
2023-12-13T03:11:25.682Z,18.55
2023-12-13T03:12:25.724Z,18.55
2023-12-13T03:13:25.789Z,18.53
2023-12-13T03:14:25.910Z,18.52
2023-12-13T03:15:25.956Z,18.53
2023-12-13T03:16:25.995Z,18.50
2023-12-13T03:17:25.985Z,18.52
2023-12-13T03:18:26.157Z,18.53
2023-12-13T03:19:26.193Z,18.55
2023-12-13T03:20:26.156Z,18.52
2023-12-13T03:21:26.243Z,18.53
2023-12-13T03:22:26.290Z,18.55
2023-12-13T03:23:26.337Z,18.55
2023-12-13T03:24:26.409Z,18.55
2023-12-13T03:25:26.513Z,18.55
2023-12-13T03:26:26.514Z,18.55
2023-12-13T03:27:26.573Z,18.56
2023-12-13T03:28:26.659Z,18.56
2023-12-13T03:29:26.695Z,18.56
2023-12-13T03:30:27.207Z,18.55
2023-12-13T03:31:26.855Z,18.55
2023-12-13T03:32:26.871Z,18.55
2023-12-13T03:33:27.010Z,18.55
2023-12-13T03:34:27.057Z,18.56
2023-12-13T03:35:27.059Z,18.56
2023-12-13T03:36:27.102Z,18.59
2023-12-13T03:37:27.215Z,18.57
2023-12-13T03:38:27.219Z,18.56
2023-12-13T03:39:27.291Z,18.57
2023-12-13T03:40:27.364Z,18.56
2023-12-13T03:41:27.428Z,18.57
2023-12-13T03:42:27.456Z,18.59
2023-12-13T03:43:27.538Z,18.60
2023-12-13T03:44:27.564Z,18.53
2023-12-13T03:45:27.682Z,18.56
2023-12-13T03:46:27.762Z,18.57
2023-12-13T03:47:28.065Z,18.53
2023-12-13T03:48:27.932Z,18.57
2023-12-13T03:49:28.071Z,18.59
2023-12-13T03:50:27.925Z,18.59
2023-12-13T03:51:27.980Z,18.57
2023-12-13T03:52:28.053Z,18.62
2023-12-13T03:53:28.101Z,18.60
2023-12-13T03:54:28.169Z,18.60
2023-12-13T03:55:28.245Z,18.59
2023-12-13T03:56:28.279Z,18.56
2023-12-13T03:57:28.360Z,18.59
2023-12-13T03:58:28.435Z,18.59
2023-12-13T03:59:28.451Z,18.60
2023-12-13T04:00:28.611Z,18.59
2023-12-13T04:01:28.601Z,18.57
2023-12-13T04:02:28.624Z,18.56
2023-12-13T04:03:28.725Z,18.60
2023-12-13T04:04:28.794Z,18.59
2023-12-13T04:05:28.808Z,18.62
2023-12-13T04:06:28.893Z,18.60
2023-12-13T04:07:28.944Z,18.60
2023-12-13T04:08:28.982Z,18.63
2023-12-13T04:09:29.041Z,18.60
2023-12-13T04:10:29.155Z,18.60
2023-12-13T04:11:29.152Z,18.62
2023-12-13T04:12:29.250Z,18.60
2023-12-13T04:13:29.313Z,18.62
2023-12-13T04:14:29.331Z,18.60
2023-12-13T04:15:29.395Z,18.59
2023-12-13T04:16:29.461Z,18.60
2023-12-13T04:17:30.304Z,18.62
2023-12-13T04:18:29.620Z,18.62
2023-12-13T04:19:29.644Z,18.59
2023-12-13T04:20:29.672Z,18.60
2023-12-13T04:21:29.721Z,18.62
2023-12-13T04:22:29.796Z,18.57
2023-12-13T04:23:29.837Z,18.59
2023-12-13T04:24:29.877Z,18.57
2023-12-13T04:25:29.984Z,18.59
2023-12-13T04:26:30.005Z,18.60
2023-12-13T04:27:30.171Z,18.56
2023-12-13T04:28:30.105Z,18.59
2023-12-13T04:29:30.159Z,18.60
2023-12-13T04:30:30.252Z,18.60
2023-12-13T04:31:30.360Z,18.60
2023-12-13T04:32:30.406Z,18.60
2023-12-13T04:33:30.480Z,18.57
2023-12-13T04:34:30.477Z,18.62
2023-12-13T04:35:30.521Z,18.60
2023-12-13T04:36:30.560Z,18.63
2023-12-13T04:37:30.798Z,18.62
2023-12-13T04:38:30.660Z,18.62
2023-12-13T04:39:30.776Z,18.60
2023-12-13T04:40:30.831Z,18.63
2023-12-13T04:41:30.849Z,18.62
2023-12-13T04:42:30.888Z,18.60
2023-12-13T04:43:30.960Z,18.62
2023-12-13T04:44:30.995Z,18.63
2023-12-13T04:45:31.056Z,18.60
2023-12-13T04:46:38.456Z,18.59
2023-12-13T04:47:38.774Z,18.59
2023-12-13T04:48:38.643Z,18.60
2023-12-13T04:49:38.615Z,18.60
2023-12-13T04:50:38.601Z,18.60
2023-12-13T04:51:38.638Z,18.63
2023-12-13T04:52:39.521Z,18.63
2023-12-13T04:53:38.714Z,18.60
2023-12-13T04:54:38.766Z,18.62
2023-12-13T04:55:38.862Z,18.62
2023-12-13T04:56:38.847Z,18.60
2023-12-13T04:57:39.486Z,18.60
2023-12-13T04:58:38.966Z,18.63
2023-12-13T04:59:38.971Z,18.62
2023-12-13T05:00:39.059Z,18.59
2023-12-13T05:01:39.085Z,18.63
2023-12-13T05:02:39.097Z,18.62
2023-12-13T05:03:39.208Z,18.60
2023-12-13T05:04:39.242Z,18.57
2023-12-13T05:05:39.308Z,18.63
2023-12-13T05:06:39.306Z,18.62
2023-12-13T05:07:39.480Z,18.63
2023-12-13T05:08:39.377Z,18.62
2023-12-13T05:09:39.429Z,18.64
2023-12-13T05:10:39.538Z,18.60
2023-12-13T05:11:39.521Z,18.63
2023-12-13T05:12:39.579Z,18.60
2023-12-13T05:13:39.639Z,18.62
2023-12-13T05:14:39.684Z,18.63
2023-12-13T05:15:39.700Z,18.62
2023-12-13T05:16:39.800Z,18.60
2023-12-13T05:17:39.906Z,18.66
2023-12-13T05:18:39.869Z,18.63
2023-12-13T05:19:40.080Z,18.60
2023-12-13T05:20:39.960Z,18.62
2023-12-13T05:21:39.996Z,18.62
2023-12-13T05:22:40.111Z,18.60
2023-12-13T05:23:40.087Z,18.62
2023-12-13T05:24:40.157Z,18.60
2023-12-13T05:25:40.263Z,18.63
2023-12-13T05:26:40.211Z,18.62
2023-12-13T05:27:40.253Z,18.62
2023-12-13T05:28:40.353Z,18.64
2023-12-13T05:29:40.353Z,18.60
2023-12-13T05:30:40.423Z,18.62
2023-12-13T05:31:40.479Z,18.62
2023-12-13T05:32:40.525Z,18.62
2023-12-13T05:33:40.554Z,18.67
2023-12-13T05:34:40.597Z,18.60
2023-12-13T05:35:40.667Z,18.64
2023-12-13T05:36:40.651Z,18.62
2023-12-13T05:37:40.713Z,18.62
2023-12-13T05:38:40.722Z,18.64
2023-12-13T05:39:40.760Z,18.62
2023-12-13T05:40:40.837Z,18.63
2023-12-13T05:41:41.499Z,18.62
2023-12-13T05:42:40.887Z,18.63
2023-12-13T05:43:40.978Z,18.62
2023-12-13T05:44:40.964Z,18.60
2023-12-13T05:45:41.016Z,18.60
2023-12-13T05:46:41.119Z,18.63
2023-12-13T05:47:41.166Z,18.63
2023-12-13T05:48:41.217Z,18.64
2023-12-13T05:49:41.197Z,18.63
2023-12-13T05:50:41.216Z,18.64
2023-12-13T05:51:41.260Z,18.64
2023-12-13T05:52:41.298Z,18.62
2023-12-13T05:53:41.315Z,18.63
2023-12-13T05:54:41.364Z,18.63
2023-12-13T05:55:41.426Z,18.64
2023-12-13T05:56:41.442Z,18.64
2023-12-13T05:57:41.494Z,18.62
2023-12-13T05:58:41.674Z,18.62
2023-12-13T05:59:41.649Z,18.63
2023-12-13T06:00:41.647Z,18.63
2023-12-13T06:01:42.528Z,18.60
2023-12-13T06:02:54.797Z,18.63
2023-12-13T06:03:42.793Z,18.64
2023-12-13T06:04:41.883Z,18.66
2023-12-13T06:05:42.167Z,18.67
2023-12-13T06:06:41.925Z,18.66
2023-12-13T06:07:41.934Z,18.66
2023-12-13T06:08:41.987Z,18.66
2023-12-13T06:09:42.035Z,18.64
2023-12-13T06:10:42.548Z,18.64
2023-12-13T06:11:42.112Z,18.66
2023-12-13T06:12:42.165Z,18.66
2023-12-13T06:13:42.410Z,18.63
2023-12-13T06:14:42.226Z,18.66
2023-12-13T06:15:42.279Z,18.64
2023-12-13T06:16:42.480Z,18.66
2023-12-13T06:17:42.454Z,18.66
2023-12-13T06:18:42.440Z,18.70
2023-12-13T06:19:42.455Z,18.64
2023-12-13T06:20:42.502Z,18.67
2023-12-13T06:21:42.537Z,18.67
2023-12-13T06:22:42.607Z,18.71
2023-12-13T06:23:42.665Z,18.73
2023-12-13T06:24:42.648Z,18.67
2023-12-13T06:25:42.760Z,18.71
2023-12-13T06:26:42.733Z,18.70
2023-12-13T06:27:42.778Z,18.73
2023-12-13T06:28:42.910Z,18.74
2023-12-13T06:29:43.010Z,18.82
2023-12-13T06:30:43.080Z,18.86
2023-12-13T06:31:48.132Z,18.90
2023-12-13T06:32:43.274Z,18.96
2023-12-13T06:33:43.358Z,19.00
2023-12-13T06:34:43.989Z,19.03
2023-12-13T06:35:43.944Z,19.05
2023-12-13T06:36:43.323Z,19.08
2023-12-13T06:37:43.465Z,19.10
2023-12-13T06:38:43.475Z,19.14
2023-12-13T06:39:44.470Z,19.17
2023-12-13T06:40:44.520Z,19.19
2023-12-13T06:41:43.548Z,19.22
2023-12-13T06:42:43.542Z,19.25
2023-12-13T06:43:43.574Z,19.29
2023-12-13T06:44:43.587Z,19.29
2023-12-13T06:45:43.618Z,19.34
2023-12-13T06:46:43.760Z,19.36
2023-12-13T06:47:43.678Z,19.36
2023-12-13T06:48:43.795Z,19.42
2023-12-13T06:49:43.763Z,19.42
2023-12-13T06:50:43.827Z,19.46
2023-12-13T06:51:44.554Z,19.48
2023-12-13T06:52:43.845Z,19.46
2023-12-13T06:53:43.882Z,19.51
2023-12-13T06:54:43.866Z,19.52
2023-12-13T06:55:44.086Z,19.52
2023-12-13T06:56:44.536Z,19.55
2023-12-13T06:57:43.934Z,19.56
2023-12-13T06:58:44.025Z,19.62
2023-12-13T06:59:43.991Z,19.61
2023-12-13T07:00:44.566Z,19.62
2023-12-13T07:01:44.018Z,19.68
2023-12-13T07:02:44.097Z,19.65
2023-12-13T07:03:44.071Z,19.68
2023-12-13T07:04:44.244Z,19.69
2023-12-13T07:05:44.426Z,19.69
2023-12-13T07:06:45.127Z,19.72
2023-12-13T07:07:44.199Z,19.70
2023-12-13T07:08:44.188Z,19.74
2023-12-13T07:09:46.086Z,19.74
2023-12-13T07:10:44.253Z,19.76
2023-12-13T07:11:44.240Z,19.82
2023-12-13T07:12:44.310Z,19.79
2023-12-13T07:13:44.448Z,19.80
2023-12-13T07:14:46.035Z,19.83
2023-12-13T07:15:44.321Z,19.83
2023-12-13T07:16:44.414Z,19.87
2023-12-13T07:17:44.409Z,19.87
2023-12-13T07:18:44.391Z,19.87
2023-12-13T07:19:45.446Z,19.92
2023-12-13T07:20:44.445Z,20.00
2023-12-13T07:21:44.426Z,20.01
2023-12-13T07:22:44.504Z,20.00
2023-12-13T07:23:44.560Z,19.96
2023-12-13T07:24:44.507Z,19.94
2023-12-13T07:25:44.586Z,19.92
2023-12-13T07:26:46.554Z,19.90
2023-12-13T07:27:44.568Z,19.89
2023-12-13T07:28:44.675Z,19.84
2023-12-13T07:29:44.724Z,19.83
2023-12-13T07:30:52.466Z,19.80
2023-12-13T07:31:45.860Z,19.74
2023-12-13T07:32:44.875Z,19.72
2023-12-13T07:33:44.890Z,19.68
2023-12-13T07:34:44.891Z,19.69
2023-12-13T07:35:44.886Z,19.66
2023-12-13T07:36:44.932Z,19.63
2023-12-13T07:37:44.970Z,19.61
2023-12-13T07:38:44.962Z,19.63
2023-12-13T07:39:44.991Z,19.61
2023-12-13T07:40:45.102Z,19.55
2023-12-13T07:41:45.067Z,19.53
2023-12-13T07:42:46.970Z,19.52
2023-12-13T07:43:45.109Z,19.51
2023-12-13T07:44:45.123Z,19.51
2023-12-13T07:45:45.158Z,19.45
2023-12-13T07:46:46.070Z,19.49
2023-12-13T07:47:53.521Z,19.45
2023-12-13T07:48:46.400Z,19.44
2023-12-13T07:49:46.098Z,19.45
2023-12-13T07:50:45.455Z,19.38
2023-12-13T07:51:45.333Z,19.38
2023-12-13T07:52:45.381Z,19.39
2023-12-13T07:53:46.684Z,19.36
2023-12-13T07:54:45.432Z,19.34
2023-12-13T07:55:45.456Z,19.31
2023-12-13T07:56:45.480Z,19.32
2023-12-13T07:57:45.499Z,19.28
2023-12-13T07:58:45.583Z,19.26
2023-12-13T07:59:45.581Z,19.25
2023-12-13T08:00:45.636Z,19.26
2023-12-13T08:01:45.696Z,19.26
2023-12-13T08:02:47.026Z,19.22
2023-12-13T08:03:45.744Z,19.25
2023-12-13T08:04:45.849Z,19.24
2023-12-13T08:05:45.971Z,19.22
2023-12-13T08:06:45.988Z,19.24
2023-12-13T08:07:46.154Z,19.22
2023-12-13T08:08:46.148Z,19.21
2023-12-13T08:09:46.498Z,19.21
2023-12-13T08:10:46.603Z,19.19
2023-12-13T08:11:46.390Z,19.17
2023-12-13T08:12:46.503Z,19.18
2023-12-13T08:13:46.742Z,19.14
2023-12-13T08:14:46.650Z,19.15
2023-12-13T08:15:46.744Z,19.17
2023-12-13T08:16:46.840Z,19.17
2023-12-13T08:17:47.052Z,19.17
2023-12-13T08:18:47.117Z,19.17
2023-12-13T08:19:47.572Z,19.15
2023-12-13T08:20:48.970Z,19.15
2023-12-13T08:21:47.282Z,19.15
2023-12-13T08:22:47.563Z,19.13
2023-12-13T08:23:47.520Z,19.14
2023-12-13T08:24:47.552Z,19.21
2023-12-13T08:25:47.668Z,19.29
2023-12-13T08:26:47.691Z,19.29
2023-12-13T08:27:47.773Z,19.24
2023-12-13T08:28:48.335Z,19.11
2023-12-13T08:29:47.988Z,19.00
2023-12-13T08:30:48.156Z,18.90
2023-12-13T08:31:48.234Z,18.82
2023-12-13T08:32:49.101Z,18.80
2023-12-13T08:33:48.486Z,18.82
2023-12-13T08:34:48.578Z,18.77
2023-12-13T08:35:48.638Z,18.82
2023-12-13T08:36:48.715Z,18.77
2023-12-13T08:37:48.806Z,18.82
2023-12-13T08:38:49.847Z,18.80
2023-12-13T08:39:49.592Z,18.83
2023-12-13T08:40:49.026Z,18.86
2023-12-13T08:41:49.024Z,18.84
2023-12-13T08:42:49.085Z,18.84
2023-12-13T08:43:50.071Z,18.82
2023-12-13T08:44:49.178Z,18.83
2023-12-13T08:45:49.236Z,18.82
2023-12-13T08:46:49.316Z,18.84
2023-12-13T08:47:49.328Z,18.83
2023-12-13T08:48:49.422Z,18.86
2023-12-13T08:49:49.454Z,18.87
2023-12-13T08:50:50.024Z,18.90
2023-12-13T08:51:49.502Z,18.97
2023-12-13T08:52:49.651Z,19.03
2023-12-13T08:53:49.669Z,19.07
2023-12-13T08:54:49.743Z,19.11
2023-12-13T08:55:49.881Z,19.15
2023-12-13T08:56:49.862Z,19.18
2023-12-13T08:57:49.924Z,19.19
2023-12-13T08:58:50.000Z,19.24
2023-12-13T08:59:56.754Z,19.25
2023-12-13T09:00:51.225Z,19.34
2023-12-13T09:01:50.144Z,19.44
2023-12-13T09:02:51.078Z,19.44
2023-12-13T09:03:50.298Z,19.39
2023-12-13T09:04:50.314Z,19.29
2023-12-13T09:05:50.396Z,19.22
2023-12-13T09:06:50.347Z,19.21
2023-12-13T09:07:50.442Z,19.19
2023-12-13T09:08:52.084Z,19.17
2023-12-13T09:09:51.079Z,19.11
2023-12-13T09:10:50.515Z,19.13
2023-12-13T09:11:50.516Z,19.08
2023-12-13T09:12:50.564Z,19.10
2023-12-13T09:13:50.715Z,19.11
2023-12-13T09:14:50.695Z,19.17
2023-12-13T09:15:50.788Z,19.15
2023-12-13T09:16:50.824Z,19.26
2023-12-13T09:17:50.912Z,19.28
2023-12-13T09:18:51.004Z,19.25
2023-12-13T09:19:51.204Z,19.17
2023-12-13T09:20:51.170Z,19.14
2023-12-13T09:21:51.196Z,19.08
2023-12-13T09:22:51.356Z,18.96
2023-12-13T09:23:51.391Z,18.98
2023-12-13T09:24:51.557Z,18.90
2023-12-13T09:25:51.598Z,18.90
2023-12-13T09:26:51.651Z,18.90
2023-12-13T09:27:51.760Z,18.91
2023-12-13T09:28:51.942Z,18.90
2023-12-13T09:29:51.945Z,18.90
2023-12-13T09:30:52.122Z,18.91
2023-12-13T09:31:52.087Z,18.94
2023-12-13T09:32:53.190Z,18.96
2023-12-13T09:33:52.324Z,18.97
2023-12-13T09:34:52.257Z,19.00
2023-12-13T09:35:52.328Z,19.08
2023-12-13T09:36:52.429Z,19.10
2023-12-13T09:37:52.562Z,19.15
2023-12-13T09:38:52.604Z,19.21
2023-12-13T09:39:59.576Z,19.22
2023-12-13T09:40:53.759Z,19.28
2023-12-13T09:41:52.740Z,19.28
2023-12-13T09:42:52.787Z,19.35
2023-12-13T09:43:52.832Z,19.36
2023-12-13T09:44:52.832Z,19.41
2023-12-13T09:45:52.867Z,19.44
2023-12-13T09:46:52.939Z,19.46
2023-12-13T09:47:53.017Z,19.51
2023-12-13T09:48:52.976Z,19.53
2023-12-13T09:49:53.041Z,19.55
2023-12-13T09:50:53.075Z,19.58
2023-12-13T09:51:52.999Z,19.61
2023-12-13T09:52:53.071Z,19.63
2023-12-13T09:53:53.041Z,19.63
2023-12-13T09:54:53.064Z,19.68
2023-12-13T09:55:53.172Z,19.70
2023-12-13T09:56:53.175Z,19.72
2023-12-13T09:57:53.136Z,19.72
2023-12-13T09:58:53.233Z,19.70
2023-12-13T09:59:53.190Z,19.76
2023-12-13T10:00:53.206Z,19.76
2023-12-13T10:01:53.327Z,19.79
2023-12-13T10:02:53.394Z,19.82
2023-12-13T10:03:53.470Z,19.83
2023-12-13T10:04:54.600Z,19.83
2023-12-13T10:05:53.744Z,19.89
2023-12-13T10:06:54.610Z,19.87
2023-12-13T10:07:54.826Z,19.89
2023-12-13T10:08:53.779Z,19.87
2023-12-13T10:09:54.599Z,19.89
2023-12-13T10:10:53.908Z,19.92
2023-12-13T10:11:53.840Z,19.94
2023-12-13T10:12:53.853Z,19.93
2023-12-13T10:13:53.896Z,19.96
2023-12-13T10:14:53.887Z,19.94
2023-12-13T10:15:53.909Z,19.99
2023-12-13T10:17:00.833Z,20.03
2023-12-13T10:17:55.568Z,20.01
2023-12-13T10:18:53.980Z,20.01
2023-12-13T10:19:54.085Z,20.06
2023-12-13T10:20:54.001Z,20.06
2023-12-13T10:21:54.022Z,20.09
2023-12-13T10:22:54.132Z,20.11
2023-12-13T10:23:54.646Z,20.10
2023-12-13T10:24:54.112Z,20.14
2023-12-13T10:25:54.157Z,20.20
2023-12-13T10:26:54.204Z,20.14
2023-12-13T10:27:54.276Z,20.13
2023-12-13T10:28:54.362Z,20.03
2023-12-13T10:29:54.383Z,19.94
2023-12-13T10:30:54.486Z,19.90
2023-12-13T10:31:54.484Z,19.86
2023-12-13T10:32:54.677Z,19.86
2023-12-13T10:33:54.595Z,19.86
2023-12-13T10:34:54.582Z,19.87
2023-12-13T10:35:54.581Z,19.84
2023-12-13T10:36:54.651Z,19.87
2023-12-13T10:37:54.754Z,19.89
2023-12-13T10:38:54.802Z,19.90
2023-12-13T10:39:55.130Z,19.90
2023-12-13T10:40:55.022Z,19.94
2023-12-13T10:41:55.075Z,19.94
2023-12-13T10:42:55.156Z,20.01
2023-12-13T10:43:55.270Z,20.01
2023-12-13T10:44:55.297Z,20.00
2023-12-13T10:45:55.409Z,20.03
2023-12-13T10:46:55.472Z,20.00
2023-12-13T10:47:55.562Z,20.06
2023-12-13T10:48:55.623Z,20.04
2023-12-13T10:49:55.833Z,20.10
2023-12-13T10:50:55.746Z,20.13
2023-12-13T10:51:55.835Z,20.11
2023-12-13T10:52:55.933Z,20.10
2023-12-13T10:53:55.939Z,20.14
2023-12-13T10:54:56.558Z,20.13
2023-12-13T10:55:56.649Z,20.14
2023-12-13T10:56:56.121Z,20.17
2023-12-13T10:57:56.178Z,20.19
2023-12-13T10:58:56.283Z,20.23
2023-12-13T10:59:56.294Z,20.30
2023-12-13T11:00:56.404Z,20.28
2023-12-13T11:01:56.490Z,20.34
2023-12-13T11:02:56.496Z,20.27
2023-12-13T11:03:56.570Z,20.25
2023-12-13T11:04:56.673Z,20.24
2023-12-13T11:05:56.708Z,20.21
2023-12-13T11:06:56.729Z,20.20
2023-12-13T11:07:56.812Z,20.16
2023-12-13T11:08:56.838Z,20.14
2023-12-13T11:09:56.932Z,20.13
2023-12-13T11:10:57.006Z,20.09
2023-12-13T11:11:57.045Z,20.06
2023-12-13T11:12:57.641Z,20.04
2023-12-13T11:13:57.202Z,20.00
2023-12-13T11:14:57.255Z,19.97
2023-12-13T11:15:57.335Z,19.96
2023-12-13T11:16:57.457Z,19.96
2023-12-13T11:17:57.525Z,19.93
2023-12-13T11:18:57.785Z,19.89
2023-12-13T11:19:58.579Z,19.87
2023-12-13T11:20:57.779Z,19.84
2023-12-13T11:21:57.893Z,19.83
2023-12-13T11:22:58.045Z,19.80
2023-12-13T11:23:57.990Z,19.80
2023-12-13T11:24:58.058Z,19.77
2023-12-13T11:25:58.237Z,19.73
2023-12-13T11:26:58.189Z,19.74
2023-12-13T11:27:59.134Z,19.70
2023-12-13T11:28:58.338Z,19.72
2023-12-13T11:29:58.325Z,19.73
2023-12-13T11:30:58.473Z,19.69
2023-12-13T11:31:58.457Z,19.69
2023-12-13T11:32:59.583Z,19.69
2023-12-13T11:33:58.480Z,19.68
2023-12-13T11:34:58.560Z,19.65
2023-12-13T11:35:58.490Z,19.66
2023-12-13T11:36:59.062Z,19.63
2023-12-13T11:37:58.566Z,19.61
2023-12-13T11:38:58.555Z,19.62
2023-12-13T11:39:58.582Z,19.59
2023-12-13T11:40:58.668Z,19.58
2023-12-13T11:41:58.649Z,19.56
2023-12-13T11:42:58.671Z,19.58
2023-12-13T11:43:58.769Z,19.56
2023-12-13T11:44:58.772Z,19.55
2023-12-13T11:45:59.564Z,19.55
2023-12-13T11:46:58.916Z,19.53
2023-12-13T11:47:58.843Z,19.53
2023-12-13T11:48:58.831Z,19.52
2023-12-13T11:49:58.852Z,19.52
2023-12-13T11:50:58.880Z,19.51
2023-12-13T11:51:58.920Z,19.51
2023-12-13T11:52:58.972Z,19.49
2023-12-13T11:53:59.648Z,19.51
2023-12-13T11:54:58.978Z,19.49
2023-12-13T11:55:59.057Z,19.48
2023-12-13T11:56:59.034Z,19.48
2023-12-13T11:57:59.679Z,19.45
2023-12-13T11:58:59.221Z,19.46
2023-12-13T11:59:59.093Z,19.45
2023-12-13T12:00:59.197Z,19.44
2023-12-13T12:01:59.172Z,19.44
2023-12-13T12:02:59.173Z,19.42
2023-12-13T12:03:59.307Z,19.44
2023-12-13T12:04:59.340Z,19.41
2023-12-13T12:05:59.380Z,19.36
2023-12-13T12:06:59.364Z,19.39
2023-12-13T12:07:59.416Z,19.38
2023-12-13T12:08:59.485Z,19.39
2023-12-13T12:09:59.530Z,19.38
2023-12-13T12:10:59.693Z,19.35
2023-12-13T12:11:59.656Z,19.35
2023-12-13T12:12:59.715Z,19.36
2023-12-13T12:13:59.901Z,19.34
2023-12-13T12:14:59.904Z,19.34
2023-12-13T12:15:59.909Z,19.31
2023-12-13T12:17:00.079Z,19.32
2023-12-13T12:18:00.200Z,19.32
2023-12-13T12:19:00.244Z,19.34
2023-12-13T12:20:00.273Z,19.29
2023-12-13T12:21:00.348Z,19.28
2023-12-13T12:22:00.353Z,19.29
2023-12-13T12:23:00.410Z,19.29
2023-12-13T12:24:00.508Z,19.26
2023-12-13T12:25:00.579Z,19.26
2023-12-13T12:26:00.711Z,19.26
2023-12-13T12:27:00.729Z,19.26
2023-12-13T12:28:00.820Z,19.25
2023-12-13T12:29:01.708Z,19.28
2023-12-13T12:30:00.966Z,19.24
2023-12-13T12:31:01.204Z,19.25
2023-12-13T12:32:01.181Z,19.22
2023-12-13T12:33:01.336Z,19.25
2023-12-13T12:34:01.490Z,19.24
2023-12-13T12:35:02.299Z,19.24
2023-12-13T12:36:01.464Z,19.21
2023-12-13T12:37:01.570Z,19.22
2023-12-13T12:38:01.689Z,19.22
2023-12-13T12:39:01.728Z,19.19
2023-12-13T12:40:01.848Z,19.21
2023-12-13T12:41:01.935Z,19.19
2023-12-13T12:42:01.993Z,19.18
2023-12-13T12:43:02.072Z,19.21
2023-12-13T12:44:02.207Z,19.19
2023-12-13T12:45:02.483Z,19.18
2023-12-13T12:46:02.366Z,19.18
2023-12-13T12:47:02.554Z,19.19
2023-12-13T12:48:02.614Z,19.19
2023-12-13T12:49:02.712Z,19.18
2023-12-13T12:50:02.845Z,19.18
2023-12-13T12:51:02.777Z,19.18
2023-12-13T12:52:02.890Z,19.15
2023-12-13T12:53:03.038Z,19.18